Overview Statistics Trail Chart Weather Telemetry Raw packets
 

This is the latest recevied weather packets stored in our database for station/object KK7MLS-13. If no packets are shown the sender has not sent any weather packets the latest 10 day(s).

<< 67 68 69 70 71 72 73 >>
Time Temp. Humidity Pressure Rain* Wind** Luminosity Snow
1788202377 25° C 46% 1010.6 hPa 0 mm - 587 W/m² -
1788202076 25° C 46% 1010.6 hPa 0 mm - 582 W/m² -
1788201772 24.44° C 48% 1010.5 hPa 0 mm - 572 W/m² -
1788201467 25° C 46% 1010.7 hPa 0 mm - 568 W/m² -
1788201167 25° C 46% 1010.6 hPa 0 mm - 560 W/m² -
1788200865 24.44° C 47% 1010.5 hPa 0 mm - 552 W/m² -
1788200561 23.33° C 50% 1010.8 hPa 0 mm - 541 W/m² -
1788200256 22.78° C 51% 1010.9 hPa 0 mm - 535 W/m² -
1788199951 22.78° C 50% 1011.1 hPa 0 mm - 530 W/m² -
1788199646 22.78° C 50% 1011 hPa 0 mm - 525 W/m² -
1788199341 23.33° C 48% 1011.1 hPa 0 mm - 510 W/m² -
1788199040 22.78° C 52% 1011 hPa 0 mm - 484 W/m² -
1788198737 22.78° C 51% 1011 hPa 0 mm - 504 W/m² -
1788198437 21.67° C 53% 1011.1 hPa 0 mm - 492 W/m² -
1788198133 21.67° C 54% 1011.3 hPa 0 mm - 486 W/m² -
1788197831 22.22° C 52% 1011.2 hPa 0 mm - 478 W/m² -
1788197527 22.22° C 53% 1011.4 hPa 0 mm - 473 W/m² -
1788197227 22.22° C 53% 1011.4 hPa 0 mm - 460 W/m² -
1788196940 21.67° C 56% 1011.3 hPa 0 mm - 453 W/m² -
1788196617 21.11° C 59% 1011.3 hPa 0 mm - 443 W/m² -
1788196314 20.56° C 58% 1011.4 hPa 0 mm - 435 W/m² -
1788196010 21.11° C 59% 1011.4 hPa 0 mm - 422 W/m² -
1788195707 20.56° C 59% 1011.6 hPa 0 mm - 413 W/m² -
1788195403 20° C 60% 1011.4 hPa 0 mm - 394 W/m² -
1788195099 19.44° C 63% 1011.6 hPa 0 mm - 388 W/m² -

* Rain latest hour (hover to see other rain measurements)
** Current wind speed in m/s (hover to see current wind gust speed)